createdAt,value
2019-02-05T00:00:36.703Z,2.50
2019-02-05T00:03:07.816Z,2.40
2019-02-05T00:05:36.447Z,2.50
2019-02-05T00:08:05.650Z,2.50
2019-02-05T00:10:34.389Z,2.50
2019-02-05T00:13:03.059Z,2.60
2019-02-05T00:15:32.103Z,2.50
2019-02-05T00:18:00.660Z,2.50
2019-02-05T00:20:29.269Z,2.40
2019-02-05T00:22:57.811Z,2.30
2019-02-05T00:25:26.390Z,2.40
2019-02-05T00:27:55.022Z,2.40
2019-02-05T00:30:24.063Z,2.30
2019-02-05T00:32:52.683Z,2.30
2019-02-05T00:35:21.262Z,2.50
2019-02-05T00:37:49.871Z,2.40
2019-02-05T00:40:18.942Z,2.40
2019-02-05T00:42:47.491Z,2.40
2019-02-05T00:45:20.373Z,2.30
2019-02-05T00:47:49.050Z,2.20
2019-02-05T00:50:19.563Z,2.20
2019-02-05T00:52:48.185Z,2.30
2019-02-05T00:55:18.196Z,2.20
2019-02-05T00:57:47.081Z,2.20
2019-02-05T01:00:21.736Z,2.10
2019-02-05T01:02:50.447Z,2.20
2019-02-05T01:05:19.227Z,2.10
2019-02-05T01:07:48.286Z,2.10
2019-02-05T01:10:17.955Z,2.10
2019-02-05T01:12:46.603Z,2.10
2019-02-05T01:15:20.223Z,2.10
2019-02-05T01:17:48.942Z,2.00
2019-02-05T01:20:19.113Z,2.10
2019-02-05T01:22:48.134Z,2.10
2019-02-05T01:25:18.547Z,1.90
2019-02-05T01:27:48.363Z,1.90
2019-02-05T01:30:22.727Z,1.90
2019-02-05T01:32:51.490Z,1.70
2019-02-05T01:35:20.562Z,1.70
2019-02-05T01:37:49.135Z,1.60
2019-02-05T01:40:22.861Z,1.50
2019-02-05T01:42:51.759Z,1.50
2019-02-05T01:45:21.732Z,1.50
2019-02-05T01:47:50.450Z,1.50
2019-02-05T01:50:21.667Z,1.50
2019-02-05T01:52:50.369Z,1.70
2019-02-05T01:55:19.341Z,1.80
2019-02-05T01:57:51.185Z,1.90
2019-02-05T02:00:25.269Z,2.00
2019-02-05T02:02:53.897Z,1.90
2019-02-05T02:05:22.654Z,1.90
2019-02-05T02:07:51.292Z,1.80
2019-02-05T02:10:25.342Z,1.70
2019-02-05T02:12:54.711Z,1.70
2019-02-05T02:15:23.322Z,1.80
2019-02-05T02:17:52.266Z,1.80
2019-02-05T02:20:22.316Z,1.70
2019-02-05T02:22:51.478Z,1.70
2019-02-05T02:25:20.181Z,1.60
2019-02-05T02:27:50.174Z,1.50
2019-02-05T02:30:24.655Z,1.50
2019-02-05T02:32:53.263Z,1.50
2019-02-05T02:35:21.964Z,1.50
2019-02-05T02:37:50.971Z,1.40
2019-02-05T02:40:19.682Z,1.30
2019-02-05T02:42:48.283Z,1.30
2019-02-05T02:45:16.917Z,1.20
2019-02-05T02:47:45.608Z,1.10
2019-02-05T02:50:18.802Z,1.10
2019-02-05T02:52:47.708Z,1.10
2019-02-05T02:55:16.424Z,1.00
2019-02-05T02:57:45.035Z,1.10
2019-02-05T03:00:18.762Z,1.00
2019-02-05T03:02:47.294Z,1.00
2019-02-05T03:05:17.906Z,0.90
2019-02-05T03:07:46.815Z,0.90
2019-02-05T03:10:18.513Z,0.80
2019-02-05T03:12:47.050Z,0.70
2019-02-05T03:15:15.754Z,0.80
2019-02-05T03:17:44.347Z,0.70
2019-02-05T03:20:16.750Z,0.80
2019-02-05T03:22:45.559Z,0.80
2019-02-05T03:25:18.066Z,0.80
2019-02-05T03:27:46.738Z,0.80
2019-02-05T03:30:23.785Z,0.80
2019-02-05T03:32:53.353Z,0.80
2019-02-05T03:35:23.211Z,0.90
2019-02-05T03:37:52.085Z,0.90
2019-02-05T03:40:29.649Z,0.90
2019-02-05T03:42:58.518Z,1.00
2019-02-05T03:45:29.434Z,0.90
2019-02-05T03:48:01.042Z,0.90
2019-02-05T03:50:31.449Z,1.00
2019-02-05T03:53:09.431Z,0.80
2019-02-05T03:55:43.854Z,0.70
2019-02-05T03:58:35.646Z,0.70
2019-02-05T04:01:13.957Z,0.80
2019-02-05T04:03:57.463Z,0.80
2019-02-05T04:06:34.891Z,0.80
2019-02-05T04:09:12.378Z,0.80
2019-02-05T04:12:05.375Z,0.80
2019-02-05T04:14:36.987Z,1.00
2019-02-05T04:17:29.634Z,0.90
2019-02-05T04:20:18.058Z,0.90
2019-02-05T04:22:58.700Z,0.90
2019-02-05T04:25:33.230Z,0.90
2019-02-05T04:28:10.566Z,0.80
2019-02-05T04:30:54.103Z,0.80
2019-02-05T04:33:40.654Z,0.80
2019-02-05T04:36:24.280Z,0.80
2019-02-05T04:38:55.897Z,0.90
2019-02-05T04:41:30.578Z,0.90
2019-02-05T04:44:04.850Z,0.80
2019-02-05T04:46:50.990Z,1.00
2019-02-05T04:49:31.185Z,1.00
2019-02-05T04:52:02.821Z,1.20
2019-02-05T04:54:46.466Z,1.30
2019-02-05T04:57:26.878Z,1.20
2019-02-05T05:00:01.636Z,1.20
2019-02-05T05:02:54.210Z,1.20
2019-02-05T05:05:28.552Z,1.20
2019-02-05T05:08:19.658Z,1.10
2019-02-05T05:10:48.201Z,1.10
2019-02-05T05:13:17.134Z,1.20
2019-02-05T05:15:45.736Z,1.20
2019-02-05T05:18:15.575Z,1.10
2019-02-05T05:20:44.784Z,1.00
2019-02-05T05:23:13.346Z,1.10
2019-02-05T05:25:42.026Z,1.10
2019-02-05T05:28:10.644Z,1.10
2019-02-05T05:30:39.364Z,1.10
2019-02-05T05:33:07.933Z,1.20
2019-02-05T05:35:43.379Z,1.10
2019-02-05T05:38:06.750Z,1.00
2019-02-05T05:40:35.298Z,1.00
2019-02-05T05:43:03.933Z,1.10
2019-02-05T05:45:32.466Z,1.10
2019-02-05T05:48:01.042Z,1.10
2019-02-05T05:50:29.975Z,1.10
2019-02-05T05:52:58.509Z,1.10
2019-02-05T05:55:27.080Z,1.20
2019-02-05T05:57:55.620Z,1.10
2019-02-05T06:00:24.246Z,1.10
2019-02-05T06:02:52.778Z,1.10
2019-02-05T06:05:21.881Z,1.10
2019-02-05T06:07:50.784Z,1.20
2019-02-05T06:10:19.352Z,1.20
2019-02-05T06:12:47.896Z,1.20
2019-02-05T06:15:16.534Z,1.30
2019-02-05T06:17:45.185Z,1.30
2019-02-05T06:20:18.761Z,1.40
2019-02-05T06:22:47.369Z,1.40
2019-02-05T06:25:15.931Z,1.50
2019-02-05T06:27:44.605Z,1.40
2019-02-05T06:30:16.086Z,1.30
2019-02-05T06:32:45.337Z,1.30
2019-02-05T06:35:14.046Z,1.30
2019-02-05T06:37:42.589Z,1.30
2019-02-05T06:40:14.534Z,1.30
2019-02-05T06:42:43.071Z,1.30
2019-02-05T06:45:14.270Z,1.20
2019-02-05T06:47:42.886Z,1.20
2019-02-05T06:50:14.667Z,1.10
2019-02-05T06:52:43.273Z,1.20
2019-02-05T06:55:13.884Z,1.20
2019-02-05T06:57:42.486Z,1.30
2019-02-05T07:00:14.475Z,1.20
2019-02-05T07:02:43.011Z,1.30
2019-02-05T07:05:12.507Z,1.40
2019-02-05T07:07:41.310Z,1.40
2019-02-05T07:10:14.076Z,1.40
2019-02-05T07:12:42.609Z,1.40
2019-02-05T07:15:11.391Z,1.40
2019-02-05T07:17:49.298Z,1.30
2019-02-05T07:20:13.549Z,1.30
2019-02-05T07:22:42.126Z,1.30
2019-02-05T07:25:19.376Z,1.40
2019-02-05T07:27:48.180Z,1.30
2019-02-05T07:30:24.994Z,1.30
2019-02-05T07:32:53.566Z,1.30
2019-02-05T07:35:22.255Z,1.50
2019-02-05T07:37:50.978Z,1.40
2019-02-05T07:40:24.050Z,1.50
2019-02-05T07:42:52.622Z,1.50
2019-02-05T07:45:22.505Z,1.50
2019-02-05T07:47:51.449Z,1.50
2019-02-05T07:50:27.767Z,1.50
2019-02-05T07:52:56.472Z,1.50
2019-02-05T07:55:25.302Z,1.50
2019-02-05T07:57:53.877Z,1.70
2019-02-05T08:00:29.964Z,1.60
2019-02-05T08:02:58.599Z,1.60
2019-02-05T08:05:30.238Z,1.60
2019-02-05T08:07:59.091Z,1.60
2019-02-05T08:10:28.157Z,1.70
2019-02-05T08:12:56.809Z,1.60
2019-02-05T08:15:33.812Z,1.60
2019-02-05T08:18:02.455Z,1.70
2019-02-05T08:20:31.142Z,1.90
2019-02-05T08:22:59.773Z,1.90
2019-02-05T08:25:28.441Z,2.00
2019-02-05T08:28:16.359Z,1.90
2019-02-05T08:30:47.740Z,1.90
2019-02-05T08:33:16.394Z,1.90
2019-02-05T08:35:45.086Z,1.90
2019-02-05T08:38:13.994Z,1.80
2019-02-05T08:40:43.209Z,2.00
2019-02-05T08:43:11.858Z,2.00
2019-02-05T08:45:40.464Z,2.00
2019-02-05T08:48:11.350Z,2.00
2019-02-05T08:50:40.062Z,2.10
2019-02-05T08:53:08.682Z,2.20
2019-02-05T08:55:37.324Z,2.20
2019-02-05T08:58:09.004Z,2.30
2019-02-05T09:00:39.583Z,2.40
2019-02-05T09:03:10.158Z,2.40
2019-02-05T09:05:39.263Z,2.30
2019-02-05T09:08:08.142Z,2.30
2019-02-05T09:10:39.041Z,2.40
2019-02-05T09:13:07.653Z,2.40
2019-02-05T09:15:36.222Z,2.60
2019-02-05T09:18:05.910Z,2.60
2019-02-05T09:20:34.546Z,2.70
2019-02-05T09:23:03.104Z,2.60
2019-02-05T09:25:31.717Z,2.80
2019-02-05T09:28:00.442Z,2.80
2019-02-05T09:30:31.849Z,2.90
2019-02-05T09:33:02.743Z,2.90
2019-02-05T09:35:31.378Z,2.90
2019-02-05T09:38:00.012Z,3.00
2019-02-05T09:40:31.111Z,3.00
2019-02-05T09:43:00.096Z,3.10
2019-02-05T09:45:30.679Z,3.10
2019-02-05T09:47:59.954Z,3.10
2019-02-05T09:50:30.960Z,3.10
2019-02-05T09:52:59.506Z,3.10
2019-02-05T09:55:28.146Z,3.20
2019-02-05T09:57:56.962Z,3.20
2019-02-05T10:00:40.222Z,3.30
2019-02-05T10:03:08.906Z,3.30
2019-02-05T10:05:37.829Z,3.30
2019-02-05T10:08:06.749Z,3.40
2019-02-05T10:10:35.326Z,3.40
2019-02-05T10:13:04.709Z,3.50
2019-02-05T10:15:38.894Z,3.60
2019-02-05T10:18:09.194Z,3.60
2019-02-05T10:20:37.849Z,3.60
2019-02-05T10:23:06.804Z,3.80
2019-02-05T10:25:36.119Z,3.80
2019-02-05T10:28:04.908Z,3.80
2019-02-05T10:30:44.131Z,3.90
2019-02-05T10:33:12.917Z,3.90
2019-02-05T10:35:41.629Z,4.00
2019-02-05T10:38:10.332Z,4.00
2019-02-05T10:40:38.965Z,4.10
2019-02-05T10:43:07.974Z,4.10
2019-02-05T10:45:37.003Z,4.10
2019-02-05T10:48:07.092Z,4.20
2019-02-05T10:50:36.074Z,4.30
2019-02-05T10:53:05.204Z,4.50
2019-02-05T10:55:33.734Z,4.60
2019-02-05T10:58:02.412Z,4.50
2019-02-05T11:00:32.679Z,4.50
2019-02-05T11:03:04.345Z,4.50
2019-02-05T11:05:33.023Z,4.60
2019-02-05T11:08:01.679Z,4.70
2019-02-05T11:10:30.400Z,4.80
2019-02-05T11:13:20.560Z,4.90
2019-02-05T11:15:49.597Z,4.90
2019-02-05T11:18:18.190Z,5.10
2019-02-05T11:20:46.732Z,5.20
2019-02-05T11:23:15.346Z,5.30
2019-02-05T11:25:44.070Z,5.40
2019-02-05T11:28:12.666Z,5.60
2019-02-05T11:30:43.761Z,5.60
2019-02-05T11:33:12.874Z,5.70
2019-02-05T11:35:41.526Z,5.90
2019-02-05T11:38:10.508Z,5.90
2019-02-05T11:40:40.538Z,6.00
2019-02-05T11:43:09.311Z,6.00
2019-02-05T11:45:37.969Z,5.90
2019-02-05T11:48:12.419Z,5.90
2019-02-05T11:50:41.307Z,5.90
2019-02-05T11:53:10.020Z,5.90
2019-02-05T11:55:38.796Z,5.90
2019-02-05T11:58:07.462Z,6.00
2019-02-05T12:00:37.804Z,6.00
2019-02-05T12:03:06.913Z,6.00
2019-02-05T12:05:35.833Z,6.00
2019-02-05T12:08:04.996Z,6.10
2019-02-05T12:10:33.596Z,6.30
2019-02-05T12:13:02.226Z,6.40
2019-02-05T12:15:30.943Z,6.60
2019-02-05T12:17:59.540Z,6.70
2019-02-05T12:20:28.150Z,6.90
2019-02-05T12:22:56.888Z,7.10
2019-02-05T12:25:25.618Z,7.20
2019-02-05T12:27:54.296Z,7.10
2019-02-05T12:30:45.113Z,7.00
2019-02-05T12:33:08.333Z,6.90
2019-02-05T12:35:37.148Z,6.90
2019-02-05T12:38:06.634Z,6.90
2019-02-05T12:40:35.555Z,6.90
2019-02-05T12:43:04.628Z,6.90
2019-02-05T12:45:37.936Z,6.80
2019-02-05T12:48:07.529Z,6.80
2019-02-05T12:50:41.542Z,6.80
2019-02-05T12:53:10.155Z,6.70
2019-02-05T12:55:38.890Z,6.70
2019-02-05T12:58:07.670Z,6.70
2019-02-05T13:00:38.758Z,6.50
2019-02-05T13:03:08.585Z,6.10
2019-02-05T13:05:38.104Z,6.20
2019-02-05T13:08:07.353Z,6.40
2019-02-05T13:10:38.886Z,6.50
2019-02-05T13:13:08.482Z,6.60
2019-02-05T13:15:37.245Z,6.70
2019-02-05T13:18:06.740Z,6.60
2019-02-05T13:20:35.392Z,6.70
2019-02-05T13:23:05.057Z,6.80
2019-02-05T13:25:34.791Z,6.80
2019-02-05T13:28:04.711Z,6.80
2019-02-05T13:30:34.636Z,6.80
2019-02-05T13:33:03.239Z,7.00
2019-02-05T13:35:32.318Z,7.10
2019-02-05T13:38:00.909Z,7.10
2019-02-05T13:40:30.628Z,7.20
2019-02-05T13:43:00.274Z,7.30
2019-02-05T13:45:34.363Z,6.50
2019-02-05T13:48:03.663Z,6.40
2019-02-05T13:50:33.858Z,6.50
2019-02-05T13:53:02.735Z,6.40
2019-02-05T13:55:36.582Z,6.50
2019-02-05T13:58:05.908Z,6.60
2019-02-05T14:00:48.674Z,6.40
2019-02-05T14:03:17.359Z,6.40
2019-02-05T14:05:46.129Z,6.20
2019-02-05T14:08:14.784Z,6.20
2019-02-05T14:10:45.603Z,6.00
2019-02-05T14:13:14.245Z,6.10
2019-02-05T14:15:50.137Z,6.30
2019-02-05T14:18:18.801Z,6.50
2019-02-05T14:20:47.464Z,6.50
2019-02-05T14:23:16.047Z,6.60
2019-02-05T14:25:44.699Z,6.60
2019-02-05T14:28:13.359Z,6.70
2019-02-05T14:30:45.313Z,6.60
2019-02-05T14:33:13.914Z,6.50
2019-02-05T14:35:42.640Z,6.50
2019-02-05T14:38:11.315Z,6.50
2019-02-05T14:40:39.962Z,6.50
2019-02-05T14:43:08.866Z,6.50
2019-02-05T14:45:37.885Z,6.50
2019-02-05T14:48:07.218Z,6.50
2019-02-05T14:50:41.061Z,6.50
2019-02-05T14:53:10.577Z,6.50
2019-02-05T14:55:39.330Z,6.40
2019-02-05T14:58:09.874Z,6.40
2019-02-05T15:00:38.757Z,6.40
2019-02-05T15:03:11.953Z,6.40
2019-02-05T15:05:41.261Z,6.50
2019-02-05T15:08:10.737Z,6.50
2019-02-05T15:10:39.383Z,6.40
2019-02-05T15:13:08.770Z,6.40
2019-02-05T15:15:37.666Z,6.40
2019-02-05T15:18:08.139Z,6.40
2019-02-05T15:20:39.640Z,6.40
2019-02-05T15:23:08.790Z,6.30
2019-02-05T15:25:37.605Z,6.10
2019-02-05T15:28:06.484Z,6.00
2019-02-05T15:30:37.665Z,6.10
2019-02-05T15:33:13.206Z,6.20
2019-02-05T15:35:43.512Z,6.20
2019-02-05T15:38:12.050Z,6.20
2019-02-05T15:40:40.725Z,6.20
2019-02-05T15:43:09.565Z,6.20
2019-02-05T15:45:38.616Z,6.30
2019-02-05T15:48:07.274Z,6.30
2019-02-05T15:50:35.974Z,6.30
2019-02-05T15:53:06.658Z,6.30
2019-02-05T15:55:35.222Z,6.10
2019-02-05T15:58:04.705Z,6.10
2019-02-05T16:00:34.758Z,6.00
2019-02-05T16:03:05.230Z,5.90
2019-02-05T16:05:33.814Z,5.80
2019-02-05T16:08:02.828Z,5.70
2019-02-05T16:10:33.565Z,5.80
2019-02-05T16:13:03.061Z,5.70
2019-02-05T16:15:32.018Z,5.60
2019-02-05T16:18:00.654Z,5.60
2019-02-05T16:20:29.268Z,5.60
2019-02-05T16:22:57.906Z,5.60
2019-02-05T16:25:26.455Z,5.70
2019-02-05T16:27:55.392Z,5.80
2019-02-05T16:30:26.435Z,5.90
2019-02-05T16:32:55.414Z,5.60
2019-02-05T16:35:24.110Z,5.50
2019-02-05T16:37:53.707Z,5.50
2019-02-05T16:40:36.310Z,5.70
2019-02-05T16:43:05.924Z,5.70
2019-02-05T16:45:34.521Z,5.80
2019-02-05T16:48:03.094Z,5.70
2019-02-05T16:50:46.486Z,5.60
2019-02-05T16:53:15.422Z,5.60
2019-02-05T16:55:44.477Z,5.50
2019-02-05T16:58:13.230Z,5.60
2019-02-05T17:00:41.820Z,5.60
2019-02-05T17:03:10.446Z,5.40
2019-02-05T17:05:41.243Z,5.30
2019-02-05T17:08:10.138Z,5.30
2019-02-05T17:10:39.052Z,5.20
2019-02-05T17:13:07.649Z,5.20
2019-02-05T17:15:36.357Z,5.00
2019-02-05T17:18:05.746Z,5.00
2019-02-05T17:20:34.841Z,5.00
2019-02-05T17:23:04.236Z,4.90
2019-02-05T17:25:35.701Z,4.90
2019-02-05T17:28:05.130Z,4.70
2019-02-05T17:30:36.639Z,4.70
2019-02-05T17:33:05.859Z,4.60
2019-02-05T17:35:35.464Z,4.30
2019-02-05T17:38:06.574Z,4.20
2019-02-05T17:40:35.464Z,4.10
2019-02-05T17:43:04.555Z,4.00
2019-02-05T17:45:35.632Z,3.90
2019-02-05T17:48:07.091Z,3.80
2019-02-05T17:50:35.902Z,3.70
2019-02-05T17:53:04.581Z,3.60
2019-02-05T17:55:33.150Z,3.60
2019-02-05T17:58:01.833Z,3.50
2019-02-05T18:00:33.978Z,3.40
2019-02-05T18:03:02.586Z,3.40
2019-02-05T18:05:31.162Z,3.30
2019-02-05T18:08:00.210Z,3.00
2019-02-05T18:10:29.354Z,2.70
2019-02-05T18:12:57.853Z,2.60
2019-02-05T18:15:40.685Z,2.50
2019-02-05T18:18:09.358Z,2.80
2019-02-05T18:20:38.266Z,2.90
2019-02-05T18:23:06.941Z,3.20
2019-02-05T18:25:35.892Z,3.30
2019-02-05T18:28:04.953Z,2.90
2019-02-05T18:30:35.965Z,2.80
2019-02-05T18:33:05.624Z,2.80
2019-02-05T18:35:36.088Z,2.90
2019-02-05T18:38:07.702Z,2.90
2019-02-05T18:40:36.333Z,3.10
2019-02-05T18:43:05.005Z,3.10
2019-02-05T18:45:33.573Z,3.00
2019-02-05T18:48:02.184Z,2.90
2019-02-05T18:50:30.890Z,2.80
2019-02-05T18:52:59.620Z,2.80
2019-02-05T18:55:40.314Z,2.90
2019-02-05T18:58:09.958Z,3.10
2019-02-05T19:00:41.730Z,3.10
2019-02-05T19:03:15.357Z,3.00
2019-02-05T19:05:40.743Z,2.90
2019-02-05T19:08:10.030Z,2.80
2019-02-05T19:10:38.661Z,2.80
2019-02-05T19:13:07.355Z,2.70
2019-02-05T19:15:38.437Z,2.70
2019-02-05T19:18:08.388Z,2.70
2019-02-05T19:20:37.057Z,2.80
2019-02-05T19:23:07.774Z,3.20
2019-02-05T19:25:38.002Z,3.40
2019-02-05T19:28:06.977Z,3.50
2019-02-05T19:30:37.225Z,3.40
2019-02-05T19:33:05.923Z,3.40
2019-02-05T19:35:34.457Z,3.30
2019-02-05T19:38:03.027Z,3.20
2019-02-05T19:40:31.639Z,3.00
2019-02-05T19:43:00.204Z,3.00
2019-02-05T19:45:45.578Z,3.10
2019-02-05T19:48:18.825Z,3.30
2019-02-05T19:50:47.827Z,3.30
2019-02-05T19:53:16.394Z,3.20
2019-02-05T19:55:44.942Z,3.20
2019-02-05T19:58:13.573Z,3.10
2019-02-05T20:00:42.118Z,3.10
2019-02-05T20:03:11.046Z,3.10
2019-02-05T20:05:39.750Z,3.10
2019-02-05T20:08:08.370Z,3.40
2019-02-05T20:10:37.054Z,3.60
2019-02-05T20:13:06.015Z,3.60
2019-02-05T20:15:34.682Z,3.60
2019-02-05T20:18:03.315Z,3.50
2019-02-05T20:20:32.259Z,3.30
2019-02-05T20:23:00.898Z,3.20
2019-02-05T20:25:29.517Z,3.10
2019-02-05T20:27:59.247Z,3.00
2019-02-05T20:30:27.917Z,2.90
2019-02-05T20:32:56.485Z,2.90
2019-02-05T20:35:25.097Z,2.90
2019-02-05T20:37:54.262Z,2.90
2019-02-05T20:40:24.817Z,2.90
2019-02-05T20:42:53.449Z,2.90
2019-02-05T20:45:22.746Z,2.90
2019-02-05T20:47:51.382Z,2.90
2019-02-05T20:50:23.346Z,2.80
2019-02-05T20:52:51.970Z,2.80
2019-02-05T20:55:22.044Z,2.80
2019-02-05T20:57:50.753Z,2.80
2019-02-05T21:00:26.751Z,2.80
2019-02-05T21:02:55.452Z,2.80
2019-02-05T21:05:24.127Z,2.70
2019-02-05T21:07:52.875Z,2.70
2019-02-05T21:10:29.515Z,3.10
2019-02-05T21:12:58.091Z,3.10
2019-02-05T21:15:27.349Z,3.20
2019-02-05T21:17:55.984Z,3.20
2019-02-05T21:20:34.265Z,3.00
2019-02-05T21:23:02.574Z,2.80
2019-02-05T21:25:31.181Z,2.80
2019-02-05T21:28:00.079Z,2.80
2019-02-05T21:30:28.967Z,2.70
2019-02-05T21:32:57.536Z,2.70
2019-02-05T21:35:26.232Z,2.80
2019-02-05T21:37:54.766Z,2.90
2019-02-05T21:40:27.903Z,3.10
2019-02-05T21:42:56.890Z,3.10
2019-02-05T21:45:30.127Z,3.00
2019-02-05T21:47:58.800Z,3.00
2019-02-05T21:50:27.371Z,2.80
2019-02-05T21:52:56.379Z,2.60
2019-02-05T21:55:26.391Z,2.50
2019-02-05T21:57:55.972Z,2.40
2019-02-05T22:00:32.456Z,2.40
2019-02-05T22:03:01.104Z,2.50
2019-02-05T22:05:31.861Z,2.50
2019-02-05T22:08:01.089Z,2.60
2019-02-05T22:10:30.017Z,2.60
2019-02-05T22:12:58.563Z,2.60
2019-02-05T22:15:27.514Z,2.40
2019-02-05T22:17:56.134Z,2.30
2019-02-05T22:20:27.117Z,2.50
2019-02-05T22:22:57.322Z,2.90
2019-02-05T22:25:28.801Z,2.60
2019-02-05T22:27:57.487Z,2.80
2019-02-05T22:30:31.582Z,2.70
2019-02-05T22:33:00.367Z,2.60
2019-02-05T22:35:29.065Z,2.70
2019-02-05T22:37:57.674Z,2.60
2019-02-05T22:40:27.682Z,2.50
2019-02-05T22:42:56.354Z,2.40
2019-02-05T22:45:27.662Z,2.40
2019-02-05T22:47:56.270Z,2.40
2019-02-05T22:50:27.919Z,2.40
2019-02-05T22:52:56.593Z,2.70
2019-02-05T22:55:25.249Z,2.80
2019-02-05T22:57:53.921Z,2.80
2019-02-05T23:00:50.571Z,2.70
2019-02-05T23:03:27.745Z,2.90
2019-02-05T23:06:08.770Z,2.80
2019-02-05T23:08:37.374Z,2.70
2019-02-05T23:11:23.908Z,2.90
2019-02-05T23:13:52.510Z,2.70
2019-02-05T23:16:21.154Z,2.40
2019-02-05T23:18:49.689Z,2.60
2019-02-05T23:21:18.327Z,2.40
2019-02-05T23:23:46.934Z,2.10
2019-02-05T23:26:16.316Z,2.20
2019-02-05T23:28:44.950Z,2.40
2019-02-05T23:31:13.611Z,2.30
2019-02-05T23:33:44.565Z,2.00
2019-02-05T23:36:12.378Z,1.80
2019-02-05T23:38:42.297Z,1.70
2019-02-05T23:41:11.321Z,1.50
2019-02-05T23:43:39.896Z,1.40
2019-02-05T23:46:08.490Z,1.30
2019-02-05T23:48:37.057Z,1.30
2019-02-05T23:51:05.742Z,1.40
2019-02-05T23:53:34.381Z,1.40
2019-02-05T23:56:02.990Z,1.20
2019-02-05T23:58:31.828Z,1.10
